Time;durP1;ratioP1;P1;durP2;ratioP2;P2;SDS_P1;SDS_P2;PMS_P1;PMS_P2;Temp;Humidity;BMP_temperature;BMP_pressure;BME280_temperature;BME280_humidity;BME280_pressure;Samples;Min_cycle;Max_cycle;Signal;HPM_P1;HPM_P2
2021/12/13 00:01:19;;;;;;;313.67;65.75;;;10.10;99.90;;;;;;5128105;27;20039;-73
2021/12/13 00:03:56;;;;;;;299.30;63.25;;;10.00;99.90;;;;;;5127828;27;20066;-73
2021/12/13 00:06:31;;;;;;;261.10;60.50;;;10.10;99.90;;;;;;5113085;27;20402;-72
2021/12/13 00:09:01;;;;;;;263.15;62.33;;;10.10;99.90;;;;;;5113624;27;20043;-72
2021/12/13 00:11:31;;;;;;;253.98;60.22;;;10.10;99.90;;;;;;5128542;27;20125;-72
2021/12/13 00:14:08;;;;;;;245.07;61.25;;;10.10;99.90;;;;;;5124208;27;20054;-72
2021/12/13 00:16:38;;;;;;;309.75;63.08;;;10.10;99.90;;;;;;5106855;28;20044;-72
2021/12/13 00:19:09;;;;;;;276.42;61.58;;;10.10;99.90;;;;;;5141720;27;20047;-72
2021/12/13 00:21:47;;;;;;;304.38;63.85;;;10.10;99.90;;;;;;5125842;28;20031;-72
2021/12/13 00:24:23;;;;;;;275.20;62.50;;;10.10;99.90;;;;;;5113116;28;20043;-72
2021/12/13 00:26:51;;;;;;;316.88;64.18;;;10.10;99.90;;;;;;5106748;28;20367;-73
2021/12/13 00:29:22;;;;;;;257.38;60.95;;;10.10;99.90;;;;;;5122420;28;20470;-73
2021/12/13 00:32:13;;;;;;;292.63;62.35;;;10.10;99.90;;;;;;5126586;27;20744;-73
2021/12/13 00:34:45;;;;;;;279.77;60.30;;;10.10;99.90;;;;;;5118512;28;20053;-73
2021/12/13 00:37:32;;;;;;;328.80;66.15;;;10.10;99.90;;;;;;5106321;28;20054;-72
2021/12/13 00:40:14;;;;;;;250.73;61.63;;;10.10;99.90;;;;;;5128316;27;20047;-72
2021/12/13 00:42:57;;;;;;;248.93;58.83;;;10.10;99.90;;;;;;5127322;27;20039;-73
2021/12/13 00:45:29;;;;;;;295.58;60.42;;;10.10;99.90;;;;;;5117539;27;20538;-73
2021/12/13 00:47:56;;;;;;;239.63;57.05;;;10.20;99.90;;;;;;5146203;27;20129;-73
2021/12/13 00:50:59;;;;;;;244.50;56.03;;;10.10;99.90;;;;;;5125601;28;20083;-72
2021/12/13 00:53:26;;;;;;;226.80;53.38;;;10.10;99.90;;;;;;5144785;27;20063;-72
2021/12/13 00:55:53;;;;;;;194.52;50.13;;;10.10;99.90;;;;;;5131705;27;20035;-72
2021/12/13 00:58:23;;;;;;;176.80;49.22;;;10.10;99.90;;;;;;5129955;27;20039;-73
2021/12/13 01:00:54;;;;;;;203.60;49.25;;;10.10;99.90;;;;;;5123332;27;20039;-73
2021/12/13 01:03:25;;;;;;;166.18;46.05;;;10.20;99.90;;;;;;5122082;27;20039;-73
2021/12/13 01:06:17;;;;;;;167.65;46.20;;;10.10;99.90;;;;;;5127938;27;20047;-73
2021/12/13 01:09:18;;;;;;;171.35;48.40;;;10.10;99.90;;;;;;5128067;27;20039;-73
2021/12/13 01:11:44;;;;;;;149.68;46.05;;;10.20;99.90;;;;;;5128513;27;20122;-72
2021/12/13 01:14:42;;;;;;;149.18;46.33;;;10.20;99.90;;;;;;5127515;27;20043;-72
2021/12/13 01:17:29;;;;;;;165.25;48.05;;;10.20;99.90;;;;;;5131463;27;20103;-73
2021/12/13 01:20:17;;;;;;;167.32;47.70;;;10.20;99.90;;;;;;5127208;27;20039;-73
2021/12/13 01:22:52;;;;;;;156.23;48.05;;;10.20;99.90;;;;;;5161584;27;20428;-73
2021/12/13 01:28:15;;;;;;;167.70;47.95;;;10.20;99.90;;;;;;5131727;27;20047;-72
2021/12/13 01:30:47;;;;;;;163.10;47.70;;;10.20;99.90;;;;;;5151299;27;20051;-72
2021/12/13 01:33:13;;;;;;;175.50;49.38;;;10.20;99.90;;;;;;5110013;28;20048;-72
2021/12/13 01:35:43;;;;;;;175.70;49.63;;;10.20;99.90;;;;;;5130491;27;20201;-72
2021/12/13 01:38:13;;;;;;;161.98;45.05;;;10.20;99.90;;;;;;5131354;27;20046;-72
2021/12/13 01:40:41;;;;;;;152.63;43.65;;;10.20;99.90;;;;;;5130562;27;20047;-73
2021/12/13 01:43:15;;;;;;;136.35;44.40;;;10.20;99.90;;;;;;5144785;27;20059;-72
2021/12/13 01:45:45;;;;;;;130.95;43.72;;;10.20;99.90;;;;;;5124126;27;20088;-73
2021/12/13 01:48:31;;;;;;;131.27;42.65;;;10.20;99.90;;;;;;5129658;27;20047;-72
2021/12/13 01:51:08;;;;;;;123.50;42.85;;;10.20;99.90;;;;;;5119644;27;20063;-72
2021/12/13 01:53:59;;;;;;;166.85;45.13;;;10.20;99.90;;;;;;5127787;27;20043;-72
2021/12/13 02:00:08;;;;;;;136.93;43.38;;;10.20;99.90;;;;;;5122895;27;20051;-72
2021/12/13 02:02:25;;;;;;;155.50;46.55;;;10.20;99.90;;;;;;5130249;27;20541;-73
2021/12/13 02:05:02;;;;;;;163.77;47.90;;;10.20;99.90;;;;;;5126310;27;20047;-72
2021/12/13 02:07:46;;;;;;;186.80;46.72;;;10.20;99.90;;;;;;5121999;27;20051;-72
2021/12/13 02:10:31;;;;;;;178.48;45.75;;;10.20;99.90;;;;;;5124059;27;20039;-72
2021/12/13 02:13:03;;;;;;;138.32;43.40;;;10.20;99.90;;;;;;5143492;27;20048;-73
2021/12/13 02:18:22;;;;;;;124.43;42.47;;;10.20;99.90;;;;;;5129574;27;20047;-72
2021/12/13 02:20:53;;;;;;;141.00;43.60;;;10.20;99.90;;;;;;5125690;27;20048;-73
2021/12/13 02:23:20;;;;;;;97.00;38.45;;;10.20;99.90;;;;;;5115259;27;20496;-73
2021/12/13 02:25:52;;;;;;;109.60;38.38;;;10.20;99.90;;;;;;5111012;27;20056;-72
2021/12/13 02:28:23;;;;;;;90.95;36.83;;;10.30;99.90;;;;;;5146382;27;20120;-73
2021/12/13 02:30:54;;;;;;;93.50;36.80;;;10.30;99.90;;;;;;5124639;27;20053;-73
2021/12/13 02:33:34;;;;;;;85.13;35.40;;;10.30;99.90;;;;;;5123312;27;20423;-72
2021/12/13 02:36:07;;;;;;;84.78;35.95;;;10.30;99.90;;;;;;5125202;27;20069;-72
2021/12/13 02:38:34;;;;;;;90.60;37.80;;;10.30;99.90;;;;;;5109206;28;20375;-72
2021/12/13 02:41:02;;;;;;;80.18;33.58;;;10.30;99.90;;;;;;5150521;27;20039;-72
2021/12/13 02:43:40;;;;;;;79.90;34.10;;;10.30;99.90;;;;;;5128786;27;20114;-72
2021/12/13 02:46:06;;;;;;;83.95;36.38;;;10.30;99.90;;;;;;5128943;27;20075;-72
2021/12/13 02:48:34;;;;;;;72.15;34.65;;;10.30;99.90;;;;;;5129118;27;20145;-73
2021/12/13 02:51:35;;;;;;;76.20;35.92;;;10.40;99.90;;;;;;5123241;27;20071;-72
2021/12/13 02:54:10;;;;;;;72.65;35.55;;;10.30;99.90;;;;;;5103843;27;20054;-73
2021/12/13 02:56:42;;;;;;;80.72;37.67;;;10.30;99.90;;;;;;5123669;27;20052;-72
2021/12/13 02:59:10;;;;;;;76.38;36.83;;;10.30;99.90;;;;;;5109833;28;20478;-73
2021/12/13 03:01:50;;;;;;;81.40;37.53;;;10.30;99.90;;;;;;5118244;27;20098;-72
2021/12/13 03:04:20;;;;;;;76.10;36.35;;;10.30;99.90;;;;;;5152114;27;20043;-72
2021/12/13 03:06:55;;;;;;;68.20;36.70;;;10.30;99.90;;;;;;5127952;27;20043;-72
2021/12/13 03:09:24;;;;;;;63.28;35.67;;;10.30;99.90;;;;;;5128497;27;20485;-73
2021/12/13 03:11:52;;;;;;;59.70;36.20;;;10.30;99.90;;;;;;5120870;27;20046;-73
2021/12/13 03:14:38;;;;;;;60.95;35.97;;;10.30;99.90;;;;;;5128844;27;20039;-72
2021/12/13 03:17:27;;;;;;;58.30;35.55;;;10.40;99.90;;;;;;5127027;27;20062;-73
2021/12/13 03:20:19;;;;;;;53.20;33.67;;;10.40;99.90;;;;;;5126382;27;20070;-73
2021/12/13 03:22:56;;;;;;;50.67;34.20;;;10.40;99.90;;;;;;5127404;27;20053;-73
2021/12/13 03:25:27;;;;;;;54.45;34.40;;;10.40;99.90;;;;;;5127988;27;20043;-73
2021/12/13 03:28:11;;;;;;;52.50;33.85;;;10.40;99.90;;;;;;5126939;27;20161;-72
2021/12/13 03:31:04;;;;;;;46.05;31.70;;;10.40;99.90;;;;;;5118709;27;20075;-73
2021/12/13 03:33:40;;;;;;;42.80;29.73;;;10.40;99.90;;;;;;5150879;27;20047;-73
2021/12/13 03:36:12;;;;;;;44.30;29.13;;;10.40;99.90;;;;;;5128437;27;20064;-73
2021/12/13 03:38:48;;;;;;;37.33;26.73;;;10.40;99.90;;;;;;5127309;27;20367;-73
2021/12/13 03:41:20;;;;;;;39.60;27.77;;;10.40;99.90;;;;;;5116772;27;20039;-72
2021/12/13 03:43:59;;;;;;;33.75;24.73;;;10.30;99.90;;;;;;5115915;27;20039;-73
2021/12/13 03:46:29;;;;;;;36.60;23.80;;;10.40;99.90;;;;;;5127863;27;20074;-73
2021/12/13 03:48:57;;;;;;;34.55;24.52;;;10.40;99.90;;;;;;5127370;27;20444;-73
2021/12/13 03:51:27;;;;;;;35.35;23.75;;;10.30;99.90;;;;;;5124904;27;20092;-73
2021/12/13 03:53:55;;;;;;;29.83;22.20;;;10.30;99.90;;;;;;5142861;27;20377;-72
2021/12/13 03:56:33;;;;;;;35.10;22.92;;;10.30;99.90;;;;;;5109184;28;20048;-71
2021/12/13 03:59:13;;;;;;;26.60;18.42;;;10.30;99.90;;;;;;5122318;27;20055;-73
2021/12/13 04:01:57;;;;;;;28.35;19.25;;;10.20;99.90;;;;;;5109531;27;20084;-73
2021/12/13 04:04:41;;;;;;;25.85;19.27;;;10.20;99.90;;;;;;5118480;27;20040;-72
2021/12/13 04:07:16;;;;;;;22.85;16.25;;;10.20;99.90;;;;;;5114649;27;20099;-73
2021/12/13 04:09:44;;;;;;;23.13;15.98;;;10.20;99.90;;;;;;5128299;27;20490;-73
2021/12/13 04:12:14;;;;;;;19.50;15.20;;;10.20;99.90;;;;;;5116959;27;20052;-72
2021/12/13 04:14:50;;;;;;;22.13;15.57;;;10.10;99.90;;;;;;5112379;27;20047;-73
2021/12/13 04:18:41;;;;;;;26.60;15.88;;;10.10;99.90;;;;;;5127390;27;20039;-73
2021/12/13 04:20:28;;;;;;;21.38;14.75;;;10.10;99.90;;;;;;5108640;27;20051;-72
2021/12/13 04:22:59;;;;;;;23.88;15.20;;;10.00;99.90;;;;;;5127277;27;20647;-73
2021/12/13 04:25:30;;;;;;;21.30;14.50;;;10.00;99.90;;;;;;5120172;28;20031;-73
2021/12/13 04:28:05;;;;;;;24.38;14.98;;;10.00;99.90;;;;;;5111532;27;20092;-72
2021/12/13 04:30:46;;;;;;;21.92;14.32;;;10.00;99.90;;;;;;5131836;27;20043;-73
2021/12/13 04:33:32;;;;;;;22.30;13.63;;;10.00;99.90;;;;;;5116364;27;20036;-72
2021/12/13 04:36:04;;;;;;;22.15;14.13;;;9.90;99.90;;;;;;5129502;27;20069;-72
2021/12/13 04:38:51;;;;;;;18.83;13.18;;;9.90;99.90;;;;;;5131002;27;20043;-73
2021/12/13 04:41:27;;;;;;;21.38;14.50;;;9.90;99.90;;;;;;5130214;27;20150;-73
2021/12/13 04:44:08;;;;;;;21.00;14.30;;;9.90;99.90;;;;;;5110576;28;20043;-72
2021/12/13 04:46:36;;;;;;;21.77;13.00;;;9.90;99.90;;;;;;5116925;27;20038;-72
2021/12/13 04:49:11;;;;;;;19.02;12.88;;;9.90;99.90;;;;;;5131522;27;20051;-73
2021/12/13 04:52:00;;;;;;;23.70;14.40;;;9.90;99.90;;;;;;5130255;27;20050;-73
2021/12/13 04:54:28;;;;;;;22.25;13.65;;;9.80;99.90;;;;;;5119516;27;20055;-72
2021/12/13 04:56:56;;;;;;;22.90;14.73;;;9.80;99.90;;;;;;5116017;27;20434;-72
2021/12/13 04:59:22;;;;;;;25.95;16.55;;;9.80;99.90;;;;;;5131202;27;20050;-73
2021/12/13 05:01:54;;;;;;;26.60;17.50;;;9.80;99.90;;;;;;5130354;27;20193;-73
2021/12/13 05:04:21;;;;;;;32.40;18.95;;;9.80;99.90;;;;;;5130955;27;20103;-73
2021/12/13 05:06:49;;;;;;;26.55;18.17;;;9.80;99.90;;;;;;5129615;27;20051;-72
2021/12/13 05:09:17;;;;;;;28.27;19.02;;;9.80;99.90;;;;;;5126813;27;20486;-73
2021/12/13 05:11:47;;;;;;;26.67;18.88;;;9.70;99.90;;;;;;5129894;27;20041;-72
2021/12/13 05:14:14;;;;;;;31.73;20.30;;;9.70;99.90;;;;;;5132381;27;20054;-72
2021/12/13 05:16:50;;;;;;;35.10;20.50;;;9.70;99.90;;;;;;5128364;27;20042;-73
2021/12/13 05:19:31;;;;;;;27.10;20.42;;;9.70;99.90;;;;;;5132586;27;20047;-72
2021/12/13 05:21:59;;;;;;;33.25;20.55;;;9.60;99.90;;;;;;5126178;27;20665;-73
2021/12/13 05:24:28;;;;;;;35.03;21.95;;;9.60;99.90;;;;;;5130097;27;20035;-73
2021/12/13 05:27:07;;;;;;;31.58;21.27;;;9.60;99.90;;;;;;5129685;27;20486;-73
2021/12/13 05:29:38;;;;;;;33.88;22.85;;;9.60;99.90;;;;;;5124745;27;20051;-73
2021/12/13 05:32:18;;;;;;;32.83;22.65;;;9.60;99.90;;;;;;5129696;27;20062;-72
2021/12/13 05:34:57;;;;;;;36.97;22.75;;;9.60;99.90;;;;;;5122863;27;20121;-73
2021/12/13 05:37:24;;;;;;;38.83;22.92;;;9.60;99.90;;;;;;5130053;27;20125;-73
2021/12/13 05:40:03;;;;;;;39.60;23.45;;;9.60;99.90;;;;;;5128903;27;20162;-73
2021/12/13 05:42:37;;;;;;;35.03;22.73;;;9.60;99.90;;;;;;5129630;27;20486;-73
2021/12/13 05:45:06;;;;;;;35.97;24.50;;;9.60;99.90;;;;;;5131361;27;20035;-72
2021/12/13 05:47:31;;;;;;;36.80;23.17;;;9.60;99.90;;;;;;5123455;27;20071;-72
2021/12/13 05:49:57;;;;;;;40.47;23.85;;;9.60;99.90;;;;;;5128590;27;20093;-72
2021/12/13 05:52:31;;;;;;;42.53;24.60;;;9.60;99.90;;;;;;5127190;27;20142;-72
2021/12/13 05:55:01;;;;;;;42.60;25.92;;;9.60;99.90;;;;;;5131479;27;20051;-73
2021/12/13 05:57:40;;;;;;;45.83;27.38;;;9.60;99.90;;;;;;5127353;27;20039;-72
2021/12/13 06:00:09;;;;;;;45.05;26.52;;;9.60;99.90;;;;;;5124956;27;20041;-72
2021/12/13 06:03:08;;;;;;;46.17;27.67;;;9.60;99.90;;;;;;5120094;27;20088;-73
2021/12/13 06:05:41;;;;;;;39.30;25.67;;;9.60;99.90;;;;;;5125944;27;20450;-73
2021/12/13 06:08:10;;;;;;;42.35;26.48;;;9.50;99.90;;;;;;5131174;27;20053;-73
2021/12/13 06:10:52;;;;;;;40.15;25.80;;;9.60;99.90;;;;;;5122177;27;20056;-72
2021/12/13 06:13:43;;;;;;;45.97;27.95;;;9.60;99.90;;;;;;5126929;27;20121;-73
2021/12/13 06:16:43;;;;;;;51.15;28.13;;;9.60;99.90;;;;;;5130539;27;20078;-73
2021/12/13 06:19:32;;;;;;;42.42;27.15;;;9.60;99.90;;;;;;5110113;27;20114;-72
2021/12/13 06:22:07;;;;;;;41.40;26.90;;;9.50;99.90;;;;;;5109424;27;20498;-72
2021/12/13 06:24:38;;;;;;;43.65;28.20;;;9.50;99.90;;;;;;5143492;27;20056;-73
2021/12/13 06:27:12;;;;;;;46.40;28.80;;;9.50;99.90;;;;;;5117273;27;21894;-73
2021/12/13 06:29:50;;;;;;;46.45;29.42;;;9.50;99.90;;;;;;5122639;27;20043;-73
2021/12/13 06:32:32;;;;;;;47.78;31.00;;;9.50;99.90;;;;;;5163413;27;20202;-73
2021/12/13 06:35:19;;;;;;;46.63;30.77;;;9.60;99.90;;;;;;5128341;27;20614;-73
2021/12/13 06:37:45;;;;;;;48.60;31.58;;;9.60;99.90;;;;;;5128975;27;20035;-73
2021/12/13 06:40:11;;;;;;;44.45;31.13;;;9.50;99.90;;;;;;5127186;27;20043;-73
2021/12/13 06:42:36;;;;;;;55.40;34.17;;;9.50;99.90;;;;;;5127607;27;20613;-73
2021/12/13 06:45:16;;;;;;;59.03;33.92;;;9.50;99.90;;;;;;5129265;27;20047;-73
2021/12/13 06:47:50;;;;;;;52.78;35.38;;;9.50;99.90;;;;;;5125961;27;20549;-73
2021/12/13 06:50:27;;;;;;;56.22;33.22;;;9.60;99.90;;;;;;5122616;27;20118;-74
2021/12/13 06:53:19;;;;;;;55.00;35.15;;;9.50;99.90;;;;;;5126736;27;20043;-73
2021/12/13 06:55:46;;;;;;;61.67;35.78;;;9.50;99.90;;;;;;5115848;27;20386;-72
2021/12/13 06:58:32;;;;;;;56.97;36.40;;;9.50;99.90;;;;;;5122604;27;20107;-72
2021/12/13 07:01:06;;;;;;;64.47;37.97;;;9.50;99.90;;;;;;5121858;27;20517;-72
2021/12/13 07:03:32;;;;;;;59.35;37.03;;;9.50;99.90;;;;;;5111331;27;20504;-71
2021/12/13 07:06:00;;;;;;;64.28;39.38;;;9.50;99.90;;;;;;5120667;27;20055;-72
2021/12/13 07:08:37;;;;;;;64.57;38.75;;;9.50;99.90;;;;;;5124360;27;20042;-72
2021/12/13 07:11:12;;;;;;;67.15;38.83;;;9.50;99.90;;;;;;5126755;27;20043;-73
2021/12/13 07:13:39;;;;;;;62.72;40.42;;;9.50;99.90;;;;;;5126539;27;20046;-72
2021/12/13 07:16:11;;;;;;;65.00;40.92;;;9.50;99.90;;;;;;5127205;27;20478;-72
2021/12/13 07:18:52;;;;;;;62.85;40.60;;;9.50;99.90;;;;;;5118462;27;20043;-73
2021/12/13 07:21:20;;;;;;;58.58;38.42;;;9.50;99.90;;;;;;5118595;27;20092;-73
2021/12/13 07:24:12;;;;;;;56.10;38.88;;;9.50;99.90;;;;;;5124857;27;20078;-72
2021/12/13 07:27:06;;;;;;;60.25;39.83;;;9.50;99.90;;;;;;5126199;27;20058;-72
2021/12/13 07:29:47;;;;;;;66.18;42.17;;;9.50;99.90;;;;;;5112578;27;20141;-72
2021/12/13 07:32:35;;;;;;;72.18;41.20;;;9.50;99.90;;;;;;5122927;27;20630;-71
2021/12/13 07:35:16;;;;;;;62.70;40.83;;;9.50;99.90;;;;;;5126084;27;20088;-72
2021/12/13 07:37:59;;;;;;;59.85;41.70;;;9.50;99.90;;;;;;5126768;27;20058;-72
2021/12/13 07:40:43;;;;;;;61.90;42.08;;;9.50;99.90;;;;;;5121617;27;20088;-72
2021/12/13 07:43:33;;;;;;;69.80;43.58;;;9.50;99.90;;;;;;5125396;27;20047;-72
2021/12/13 07:46:19;;;;;;;70.85;44.65;;;9.50;99.90;;;;;;5119912;27;20046;-73
2021/12/13 07:48:45;;;;;;;62.47;43.60;;;9.50;99.90;;;;;;5121416;27;20055;-73
2021/12/13 07:51:10;;;;;;;67.80;45.13;;;9.50;99.90;;;;;;5125651;27;20054;-72
2021/12/13 07:53:56;;;;;;;69.88;44.42;;;9.50;99.90;;;;;;5127809;27;20394;-72
2021/12/13 07:56:39;;;;;;;68.80;42.95;;;9.50;99.90;;;;;;5109301;27;20537;-72
2021/12/13 07:59:24;;;;;;;65.50;42.53;;;9.50;99.90;;;;;;5123605;27;20043;-72
2021/12/13 08:02:02;;;;;;;56.22;40.67;;;9.50;99.90;;;;;;5126195;27;20043;-73
2021/12/13 08:04:33;;;;;;;65.38;42.22;;;9.50;99.90;;;;;;5118375;27;20043;-72
2021/12/13 08:07:16;;;;;;;64.50;42.10;;;9.50;99.90;;;;;;5124423;27;20066;-73
2021/12/13 08:09:47;;;;;;;61.25;41.22;;;9.50;99.90;;;;;;5123319;27;20728;-72
2021/12/13 08:12:36;;;;;;;62.95;42.28;;;9.50;99.90;;;;;;5125976;27;20088;-72
2021/12/13 08:15:18;;;;;;;67.93;42.20;;;9.50;99.90;;;;;;5126829;27;20095;-72
2021/12/13 08:17:44;;;;;;;63.17;41.40;;;9.50;99.90;;;;;;5125387;27;20043;-72
2021/12/13 08:20:17;;;;;;;62.55;42.58;;;9.50;99.90;;;;;;5125686;27;20046;-72
2021/12/13 08:22:46;;;;;;;58.03;40.00;;;9.50;99.90;;;;;;5122669;27;20115;-73
2021/12/13 08:25:21;;;;;;;59.20;40.97;;;9.50;99.90;;;;;;5124412;27;20039;-72
2021/12/13 08:28:00;;;;;;;60.45;40.97;;;9.50;99.90;;;;;;5116367;28;20596;-73
2021/12/13 08:30:51;;;;;;;58.08;38.90;;;9.50;99.90;;;;;;5123633;27;20074;-75
2021/12/13 08:33:21;;;;;;;61.42;39.25;;;9.50;99.90;;;;;;5111270;27;20035;-73
2021/12/13 08:35:58;;;;;;;62.85;39.92;;;9.50;99.90;;;;;;5126889;27;20047;-74
2021/12/13 08:38:30;;;;;;;59.20;39.60;;;9.50;99.90;;;;;;5120603;28;20032;-73
2021/12/13 08:40:57;;;;;;;57.08;39.00;;;9.50;99.90;;;;;;5110208;28;20044;-73
2021/12/13 08:43:46;;;;;;;51.58;37.22;;;9.50;99.90;;;;;;5110717;28;20114;-73
2021/12/13 08:46:13;;;;;;;48.63;35.83;;;9.50;99.90;;;;;;5160229;27;20103;-73
2021/12/13 08:48:48;;;;;;;50.88;35.25;;;9.50;99.90;;;;;;5106625;28;20061;-74
2021/12/13 08:51:27;;;;;;;49.67;35.20;;;9.50;99.90;;;;;;5127696;28;20047;-73
2021/12/13 08:54:10;;;;;;;50.75;35.78;;;9.50;99.90;;;;;;5121721;27;20054;-75
2021/12/13 08:56:44;;;;;;;51.67;35.83;;;9.50;99.90;;;;;;5111911;27;20055;-75
2021/12/13 08:59:30;;;;;;;52.50;36.22;;;9.50;99.90;;;;;;5119656;27;20118;-75
2021/12/13 09:02:04;;;;;;;49.42;35.65;;;9.50;99.90;;;;;;5114853;28;20071;-73
2021/12/13 09:04:34;;;;;;;45.78;33.15;;;9.50;99.90;;;;;;5128305;27;20035;-74
2021/12/13 09:07:03;;;;;;;48.63;34.47;;;9.50;99.90;;;;;;5112398;28;20160;-74
2021/12/13 09:09:29;;;;;;;47.45;34.83;;;9.50;99.90;;;;;;5127725;27;20102;-74
2021/12/13 09:12:08;;;;;;;48.35;34.80;;;9.50;99.90;;;;;;5125355;28;20058;-74
2021/12/13 09:14:38;;;;;;;48.38;34.97;;;9.50;99.90;;;;;;5137386;27;20130;-75
2021/12/13 09:17:15;;;;;;;49.80;33.08;;;9.60;99.90;;;;;;5140351;27;20087;-75
2021/12/13 09:19:50;;;;;;;50.25;34.92;;;9.50;99.90;;;;;;5127522;27;20122;-75
2021/12/13 09:22:25;;;;;;;47.55;32.38;;;9.50;99.90;;;;;;5125648;27;20043;-74
2021/12/13 09:25:14;;;;;;;45.08;32.20;;;9.50;99.90;;;;;;5135997;27;20039;-73
2021/12/13 09:28:20;;;;;;;48.15;33.72;;;9.60;99.90;;;;;;5130118;27;20134;-72
2021/12/13 09:31:06;;;;;;;45.13;33.50;;;9.60;99.90;;;;;;5125500;27;20051;-73
2021/12/13 09:33:36;;;;;;;45.17;32.10;;;9.60;99.90;;;;;;5117930;27;20478;-72
2021/12/13 09:36:01;;;;;;;42.67;31.95;;;9.60;99.90;;;;;;5125653;27;20058;-71
2021/12/13 09:38:34;;;;;;;42.50;30.85;;;9.60;99.90;;;;;;5119336;27;20559;-70
2021/12/13 09:41:10;;;;;;;40.17;30.10;;;9.60;99.90;;;;;;5117665;27;20489;-74
2021/12/13 09:43:47;;;;;;;42.53;30.65;;;9.60;99.90;;;;;;5110547;27;20052;-73
2021/12/13 09:46:20;;;;;;;41.28;30.55;;;9.60;99.90;;;;;;5109769;28;20032;-77
2021/12/13 09:48:51;;;;;;;42.08;29.77;;;9.60;99.90;;;;;;5122911;27;20051;-74
2021/12/13 09:51:31;;;;;;;39.63;29.10;;;9.60;99.90;;;;;;5125219;27;20043;-75
2021/12/13 09:54:02;;;;;;;42.70;31.70;;;9.60;99.90;;;;;;5124992;27;20039;-75
2021/12/13 09:56:34;;;;;;;44.60;30.42;;;9.60;99.90;;;;;;5133609;27;20110;-76
2021/12/13 09:59:14;;;;;;;40.88;29.42;;;9.70;99.90;;;;;;5135565;27;20054;-75
2021/12/13 10:01:41;;;;;;;39.75;28.98;;;9.60;99.90;;;;;;5141370;27;20134;-75
2021/12/13 10:04:15;;;;;;;42.85;30.30;;;9.70;99.90;;;;;;5138715;27;20047;-79
2021/12/13 10:06:43;;;;;;;38.40;27.20;;;9.70;99.90;;;;;;5129933;27;20047;-80
2021/12/13 10:09:23;;;;;;;35.00;26.65;;;9.70;99.90;;;;;;5135972;27;20122;-81
2021/12/13 10:11:54;;;;;;;36.63;27.17;;;9.70;99.90;;;;;;5138330;27;20086;-78
2021/12/13 10:14:24;;;;;;;36.55;25.90;;;9.80;99.90;;;;;;5129214;27;20092;-75
2021/12/13 10:16:54;;;;;;;38.50;25.65;;;9.80;99.90;;;;;;5126735;27;20121;-74
2021/12/13 10:19:26;;;;;;;31.80;25.50;;;9.90;99.90;;;;;;5125364;27;20039;-75
2021/12/13 10:21:52;;;;;;;33.80;25.08;;;9.90;99.90;;;;;;5142455;27;20069;-76
2021/12/13 10:24:38;;;;;;;37.03;25.10;;;9.90;99.90;;;;;;5124156;27;20439;-73
2021/12/13 10:27:06;;;;;;;32.25;23.60;;;9.90;99.90;;;;;;5136028;27;20485;-74
2021/12/13 10:29:33;;;;;;;33.65;23.67;;;9.90;99.90;;;;;;5137013;27;20051;-74
2021/12/13 10:32:04;;;;;;;30.50;22.73;;;9.80;99.90;;;;;;5123740;27;20042;-76
2021/12/13 10:34:34;;;;;;;31.85;23.00;;;9.80;99.90;;;;;;5133686;27;20437;-75
2021/12/13 10:37:05;;;;;;;28.45;22.55;;;9.80;99.90;;;;;;5123832;27;20039;-74
2021/12/13 10:39:41;;;;;;;29.25;23.15;;;9.80;99.90;;;;;;5129985;27;20046;-74
2021/12/13 10:42:11;;;;;;;30.55;22.92;;;9.80;99.90;;;;;;5137964;27;20039;-73
2021/12/13 10:44:43;;;;;;;30.67;21.95;;;9.80;99.90;;;;;;5130695;27;20115;-73
2021/12/13 10:47:13;;;;;;;29.15;22.40;;;9.80;99.90;;;;;;5111709;27;20052;-73
2021/12/13 10:49:41;;;;;;;29.98;22.75;;;9.80;99.90;;;;;;5115178;27;20070;-75
2021/12/13 10:52:17;;;;;;;27.73;21.60;;;9.80;99.90;;;;;;5150662;27;20677;-74
2021/12/13 10:54:48;;;;;;;28.83;22.90;;;9.80;99.90;;;;;;5128056;27;20074;-73
2021/12/13 10:57:19;;;;;;;26.42;21.45;;;9.90;99.90;;;;;;5140932;27;20178;-73
2021/12/13 10:59:47;;;;;;;30.73;21.45;;;9.80;99.90;;;;;;5127681;27;20043;-73
2021/12/13 11:02:23;;;;;;;28.27;21.75;;;9.90;99.90;;;;;;5125009;27;20544;-72
2021/12/13 11:05:10;;;;;;;29.00;21.88;;;9.90;99.90;;;;;;5129672;27;20159;-73
2021/12/13 11:07:37;;;;;;;27.17;21.95;;;9.90;99.90;;;;;;5128486;27;20066;-73
2021/12/13 11:10:04;;;;;;;;;;;9.90;99.90;;;;;;5138633;27;20049;-72
2021/12/13 11:12:34;;;;;;;27.10;21.67;;;9.80;99.90;;;;;;5137242;27;19919;-73
2021/12/13 11:15:05;;;;;;;28.17;21.63;;;9.90;99.90;;;;;;5131967;27;20050;-74
2021/12/13 11:17:33;;;;;;;29.17;22.33;;;9.80;99.90;;;;;;5126443;27;20050;-76
2021/12/13 11:20:06;;;;;;;29.73;21.88;;;9.90;99.90;;;;;;5138297;27;20123;-77
2021/12/13 11:22:32;;;;;;;29.45;21.58;;;9.90;99.90;;;;;;5126241;27;20078;-75
2021/12/13 11:25:05;;;;;;;29.50;22.70;;;9.90;99.90;;;;;;5130428;27;20031;-72
2021/12/13 11:27:34;;;;;;;28.27;22.02;;;9.90;99.90;;;;;;5131489;27;20031;-72
2021/12/13 11:30:05;;;;;;;26.35;22.00;;;9.90;99.90;;;;;;5125570;27;20409;-73
2021/12/13 11:32:37;;;;;;;29.45;22.67;;;9.90;99.90;;;;;;5117062;27;20045;-72
2021/12/13 11:35:15;;;;;;;27.23;21.60;;;9.90;99.90;;;;;;5130060;27;20072;-72
2021/12/13 11:38:10;;;;;;;27.02;21.52;;;9.90;99.90;;;;;;5118164;27;20050;-72
2021/12/13 11:41:07;;;;;;;31.02;22.35;;;9.90;99.90;;;;;;5149842;27;20035;-74
2021/12/13 11:43:35;;;;;;;28.77;21.65;;;9.90;99.90;;;;;;5109911;27;20127;-73
2021/12/13 11:46:44;;;;;;;26.17;21.65;;;9.80;99.90;;;;;;5111918;27;20529;-74
2021/12/13 11:49:30;;;;;;;31.20;22.10;;;9.90;99.90;;;;;;5080270;27;20075;-73
2021/12/13 11:52:53;;;;;;;27.40;21.73;;;9.80;99.90;;;;;;5106757;27;20668;-73
2021/12/13 11:55:35;;;;;;;28.00;22.02;;;9.80;99.90;;;;;;5065326;28;20044;-74
2021/12/13 11:58:36;;;;;;;26.45;21.33;;;9.80;99.90;;;;;;5040692;28;20048;-74
2021/12/13 12:01:56;;;;;;;24.48;20.83;;;9.80;99.90;;;;;;5122712;27;20055;-72
2021/12/13 12:05:04;;;;;;;27.10;21.15;;;9.80;99.90;;;;;;5048573;28;20179;-72
2021/12/13 12:07:51;;;;;;;30.23;21.33;;;9.90;99.90;;;;;;5120015;27;20043;-72
2021/12/13 12:10:49;;;;;;;27.25;20.92;;;9.90;99.90;;;;;;5110150;27;20043;-71
2021/12/13 12:13:26;;;;;;;24.30;20.58;;;9.80;99.90;;;;;;5124427;27;20064;-72
2021/12/13 12:15:58;;;;;;;25.98;20.70;;;9.80;99.90;;;;;;5146914;27;20066;-71
2021/12/13 12:18:25;;;;;;;28.70;21.85;;;9.80;99.90;;;;;;5129198;27;20608;-71
2021/12/13 12:21:33;;;;;;;27.00;21.52;;;9.90;99.90;;;;;;5126843;27;20496;-72
2021/12/13 12:24:07;;;;;;;25.95;20.60;;;9.90;99.90;;;;;;5096684;27;20067;-71
2021/12/13 12:26:33;;;;;;;28.88;20.88;;;9.90;99.90;;;;;;5110380;28;20058;-73
2021/12/13 12:29:03;;;;;;;24.10;19.52;;;9.90;99.90;;;;;;5146619;27;20051;-73
2021/12/13 12:31:32;;;;;;;26.00;20.05;;;9.90;99.90;;;;;;5140390;27;20055;-71
2021/12/13 12:33:58;;;;;;;26.95;19.92;;;9.90;99.90;;;;;;5158394;27;20065;-71
2021/12/13 12:36:57;;;;;;;26.02;20.23;;;9.90;99.90;;;;;;5124549;27;20063;-71
2021/12/13 12:40:00;;;;;;;26.70;20.80;;;9.90;99.90;;;;;;5109035;28;20047;-71
2021/12/13 12:42:38;;;;;;;26.48;20.30;;;9.90;99.90;;;;;;5106621;28;20054;-76
2021/12/13 12:45:17;;;;;;;25.13;20.23;;;9.90;99.90;;;;;;5108624;28;20046;-72
2021/12/13 12:47:46;;;;;;;25.73;20.92;;;9.90;99.90;;;;;;5110984;28;20051;-72
2021/12/13 12:50:31;;;;;;;25.08;20.05;;;9.90;99.90;;;;;;5127948;27;20126;-70
2021/12/13 12:52:59;;;;;;;25.23;20.02;;;9.90;99.90;;;;;;5111127;28;20480;-70
2021/12/13 12:55:34;;;;;;;25.58;20.80;;;9.90;99.90;;;;;;5148199;27;20043;-70
2021/12/13 12:58:11;;;;;;;24.27;20.58;;;9.90;99.90;;;;;;5130406;27;20054;-70
2021/12/13 13:00:38;;;;;;;26.17;19.85;;;9.90;99.90;;;;;;5131303;27;20046;-70
2021/12/13 13:03:04;;;;;;;24.38;20.20;;;9.90;99.90;;;;;;5131533;27;20047;-70
2021/12/13 13:05:30;;;;;;;23.45;18.88;;;9.90;99.90;;;;;;5123925;27;20048;-70
2021/12/13 13:07:56;;;;;;;26.25;19.65;;;9.90;99.90;;;;;;5110668;28;20075;-71
2021/12/13 13:13:06;;;;;;;23.65;19.13;;;9.90;99.90;;;;;;5131662;27;20486;-72
2021/12/13 13:15:37;;;;;;;27.45;19.55;;;9.90;99.90;;;;;;5123404;27;20043;-72
2021/12/13 13:18:14;;;;;;;27.40;19.85;;;9.90;99.90;;;;;;5114626;27;20059;-72
2021/12/13 13:20:50;;;;;;;25.27;18.73;;;9.90;99.90;;;;;;5125631;27;20111;-72
2021/12/13 13:23:17;;;;;;;24.65;18.30;;;9.90;99.90;;;;;;5129945;27;20079;-71
2021/12/13 13:25:54;;;;;;;23.65;19.23;;;9.90;99.90;;;;;;5131142;27;20122;-71
2021/12/13 13:28:27;;;;;;;27.17;20.63;;;9.90;99.90;;;;;;5129459;27;20043;-72
2021/12/13 13:31:32;;;;;;;26.95;20.15;;;9.90;99.90;;;;;;5125840;27;20340;-71